Far Rockaway, New York
Current Conditions -  °F | °C
As of 11:51 AM on Friday 31 Oct 2014 (Local Time) from KJFK Reporting Station
Overcast Overcast  
Wind Chill: 54°   Ceiling: 5000
Heat Index: 54°   Visibility: 10mi
Dew Point: 38°   Wind: 7mph
Humidity: 55%   Direction: 50°NE
Pressure: 29.98"   Gusts: NA
Location:  40.61°N, 73.76°W
Report Text: KJFK 311551Z 05006KT 10SM FEW022 BKN050 BKN140 OVC210 12/03 A2998 RMK AO2 SLP152 T01220033
Loading
Personal Weather Stations






























Interactive Weather Map
Tropical Storm Tracking
New forecast layout! Learn more

10-Day Weather Forecast

Advertisements
Track Severe Weather on mobile